Time;durP1;ratioP1;P1;durP2;ratioP2;P2;SDS_P1;SDS_P2;PMS_P1;PMS_P2;Temp;Humidity;BMP_temperature;BMP_pressure;BME280_temperature;BME280_humidity;BME280_pressure;Samples;Min_cycle;Max_cycle;Signal;HPM_P1;HPM_P2
2021/05/27 00:01:11;;;;;;;2.75;1.20;;;;;;;14.18;53.33;100373.94;5346999;26;20772;-79
2021/05/27 00:03:38;;;;;;;2.90;1.20;;;;;;;14.12;53.21;100377.59;5345859;26;20056;-79
2021/05/27 00:06:04;;;;;;;2.42;1.10;;;;;;;14.18;52.99;100377.47;5346572;26;20025;-79
2021/05/27 00:08:31;;;;;;;4.90;1.70;;;;;;;14.12;53.11;100385.50;5327219;26;20037;-79
2021/05/27 00:10:58;;;;;;;8.40;1.25;;;;;;;14.21;52.96;100379.16;5346228;26;20294;-78
2021/05/27 00:13:25;;;;;;;2.83;1.40;;;;;;;14.29;53.22;100379.84;5345931;26;20101;-79
2021/05/27 00:15:52;;;;;;;5.90;1.10;;;;;;;14.18;53.80;100377.47;5346737;26;20116;-79
2021/05/27 00:18:19;;;;;;;3.80;1.42;;;;;;;14.16;53.69;100379.25;5346543;26;20101;-79
2021/05/27 00:20:46;;;;;;;2.42;1.17;;;;;;;14.18;53.68;100368.66;5346191;26;20339;-79
2021/05/27 00:23:13;;;;;;;4.55;1.10;;;;;;;14.28;53.70;100371.06;5346701;26;20073;-79
2021/05/27 00:25:40;;;;;;;6.15;0.90;;;;;;;14.28;54.53;100379.00;5346977;26;20056;-79
2021/05/27 00:28:08;;;;;;;3.20;1.35;;;;;;;13.96;55.22;100373.50;5346774;26;20106;-79
2021/05/27 00:30:35;;;;;;;2.70;1.40;;;;;;;13.99;54.77;100376.94;5326856;26;20408;-79
2021/05/27 00:33:02;;;;;;;4.75;1.40;;;;;;;14.13;54.61;100373.16;5347357;26;20066;-79
2021/05/27 00:35:29;;;;;;;3.90;1.37;;;;;;;13.95;55.13;100375.28;5326558;26;20077;-79
2021/05/27 00:37:55;;;;;;;2.53;1.12;;;;;;;13.91;55.35;100378.88;5347035;26;20121;-79
2021/05/27 00:40:22;;;;;;;2.70;1.27;;;;;;;13.59;55.91;100380.38;5346169;26;20162;-78
2021/05/27 00:42:49;;;;;;;2.70;1.30;;;;;;;13.60;54.93;100378.59;5346822;26;20052;-78
2021/05/27 00:45:18;;;;;;;3.28;1.00;;;;;;;13.50;54.70;100377.91;5346663;26;20100;-79
2021/05/27 00:47:46;;;;;;;3.03;1.65;;;;;;;13.38;55.86;100386.91;5346727;26;21010;-79
2021/05/27 00:50:21;;;;;;;1.48;0.98;;;;;;;12.08;61.74;100401.94;5346579;26;20081;-78
2021/05/27 00:52:54;;;;;;;2.05;0.93;;;;;;;12.53;60.72;100401.38;5346053;26;20025;-79
2021/05/27 00:55:24;;;;;;;3.83;0.95;;;;;;;12.90;58.81;100392.03;5325779;26;20060;-78
2021/05/27 00:57:55;;;;;;;1.50;0.60;;;;;;;12.83;58.31;100397.47;5345627;26;20104;-78
2021/05/27 01:00:24;;;;;;;1.20;0.68;;;;;;;12.38;58.29;100397.19;5345835;26;20056;-78
2021/05/27 01:02:52;;;;;;;1.40;0.60;;;;;;;12.62;57.93;100396.00;5345843;26;20085;-78
2021/05/27 01:05:19;;;;;;;2.95;0.70;;;;;;;12.61;58.16;100394.25;5346211;26;20059;-78
2021/05/27 01:07:46;;;;;;;2.30;0.70;;;;;;;12.75;56.96;100397.56;5326316;26;20079;-78
2021/05/27 01:10:13;;;;;;;2.87;0.90;;;;;;;12.82;56.40;100400.97;5345310;26;20139;-78
2021/05/27 01:12:40;;;;;;;1.48;0.90;;;;;;;12.84;56.90;100407.97;5344477;26;20112;-79
2021/05/27 01:18:00;;;;;;;5.10;1.20;;;;;;;13.11;54.59;100408.44;5345417;26;20066;-79
2021/05/27 01:20:30;;;;;;;4.57;0.90;;;;;;;12.94;54.74;100414.84;5325834;26;20120;-79
2021/05/27 01:22:57;;;;;;;4.30;1.35;;;;;;;12.85;59.27;100412.38;5345575;26;20017;-78
2021/05/27 01:25:24;;;;;;;2.25;0.98;;;;;;;13.01;58.25;100409.50;5345180;26;20107;-79
2021/05/27 01:27:51;;;;;;;3.75;1.30;;;;;;;13.05;58.71;100411.16;5345388;26;20057;-79
2021/05/27 01:30:19;;;;;;;2.50;1.20;;;;;;;11.55;63.61;100413.91;5344708;26;20227;-79
2021/05/27 01:32:46;;;;;;;6.62;1.23;;;;;;;11.90;62.06;100416.19;5345516;26;20055;-78
2021/05/27 01:35:15;;;;;;;3.67;0.90;;;;;;;12.17;60.17;100414.13;5325000;26;20054;-78
2021/05/27 01:37:44;;;;;;;3.70;0.85;;;;;;;12.36;59.01;100412.16;5344532;26;20125;-79
2021/05/27 01:40:30;;;;;;;2.72;0.88;;;;;;;12.36;59.73;100401.62;5344948;26;20065;-79
2021/05/27 01:42:56;;;;;;;1.40;0.90;;;;;;;12.61;58.58;100410.06;5344751;26;20425;-79
2021/05/27 01:45:23;;;;;;;3.12;1.08;;;;;;;12.42;58.77;100409.44;5345019;26;20066;-79
2021/05/27 01:47:53;;;;;;;2.17;0.80;;;;;;;12.57;57.58;100419.78;5344892;26;20453;-79
2021/05/27 01:50:21;;;;;;;2.40;1.00;;;;;;;12.73;56.76;100404.59;5345110;26;20119;-79
2021/05/27 01:52:49;;;;;;;2.10;0.70;;;;;;;12.91;56.56;100409.63;5344975;26;20052;-79
2021/05/27 01:55:16;;;;;;;2.85;0.70;;;;;;;12.48;57.71;100410.22;5344731;26;20056;-79
2021/05/27 01:57:43;;;;;;;1.77;0.82;;;;;;;12.78;56.19;100418.59;5344212;26;20103;-79
2021/05/27 02:00:10;;;;;;;1.98;0.90;;;;;;;12.63;56.25;100406.50;5345179;26;20125;-80
2021/05/27 02:02:37;;;;;;;1.37;0.77;;;;;;;12.83;56.02;100415.91;5344215;26;20441;-79
2021/05/27 02:05:05;;;;;;;2.33;0.90;;;;;;;12.79;55.98;100414.19;5344907;26;20060;-79
2021/05/27 02:07:32;;;;;;;2.80;1.23;;;;;;;12.82;55.79;100407.09;5344138;26;20076;-79
2021/05/27 02:09:59;;;;;;;2.85;1.00;;;;;;;12.89;55.75;100408.78;5324988;26;20548;-79
2021/05/27 02:12:26;;;;;;;4.30;1.73;;;;;;;12.71;56.71;100407.28;5344469;26;20477;-79
2021/05/27 02:14:53;;;;;;;3.30;0.73;;;;;;;12.91;55.93;100409.63;5344532;26;20101;-80
2021/05/27 02:17:19;;;;;;;5.20;1.10;;;;;;;12.88;55.92;100404.41;5316761;27;20129;-79
2021/05/27 02:19:46;;;;;;;3.03;1.37;;;;;;;12.89;55.34;100403.50;5299954;27;20104;-79
2021/05/27 02:22:13;;;;;;;5.47;1.35;;;;;;;12.88;55.70;100404.41;5299665;27;20061;-80
2021/05/27 02:24:40;;;;;;;4.75;1.65;;;;;;;12.86;55.63;100394.78;5317845;27;20116;-79
2021/05/27 02:27:07;;;;;;;4.32;2.85;;;;;;;12.77;56.86;100400.19;5301758;27;20040;-79
2021/05/27 02:29:34;;;;;;;4.60;2.33;;;;;;;12.64;57.52;100399.47;5300647;27;20434;-79
2021/05/27 02:32:00;;;;;;;2.70;1.30;;;;;;;12.76;57.37;100395.78;5301838;27;20053;-80
2021/05/27 02:34:27;;;;;;;4.00;1.75;;;;;;;12.85;56.95;100393.00;5301437;27;20060;-80
2021/05/27 02:36:54;;;;;;;3.83;1.30;;;;;;;12.75;56.47;100396.69;5301593;27;20053;-79
2021/05/27 02:39:21;;;;;;;7.20;2.75;;;;;;;12.63;56.83;100389.84;5302166;27;20118;-80
2021/05/27 02:41:48;;;;;;;3.62;1.10;;;;;;;12.73;55.97;100389.69;5301706;27;20418;-79
2021/05/27 02:44:15;;;;;;;11.07;2.37;;;;;;;12.77;55.86;100384.38;5302178;27;20448;-80
2021/05/27 02:46:43;;;;;;;3.95;1.10;;;;;;;12.83;55.27;100379.00;5300875;27;20119;-79
2021/05/27 02:49:09;;;;;;;4.72;1.83;;;;;;;12.84;55.83;100383.37;5301682;27;20431;-80
2021/05/27 02:51:37;;;;;;;3.35;1.08;;;;;;;12.85;56.62;100386.00;5301400;27;20061;-79
2021/05/27 02:54:04;;;;;;;1.90;1.40;;;;;;;12.76;56.96;100387.88;5301797;27;20057;-80
2021/05/27 02:56:31;;;;;;;2.33;1.35;;;;;;;12.68;58.04;100378.34;5301308;27;20092;-79
2021/05/27 02:58:59;;;;;;;4.75;1.73;;;;;;;12.64;57.05;100379.25;5317368;27;20134;-79
2021/05/27 03:01:25;;;;;;;5.25;1.65;;;;;;;12.67;56.68;100383.59;5301493;27;20039;-79
2021/05/27 03:03:52;;;;;;;2.53;1.25;;;;;;;12.65;56.68;100375.75;5301758;27;20051;-79
2021/05/27 03:06:19;;;;;;;4.95;1.55;;;;;;;12.15;59.11;100379.06;5300809;27;20056;-79
2021/05/27 03:08:46;;;;;;;6.90;1.70;;;;;;;12.55;58.09;100379.37;5299845;27;20064;-79
2021/05/27 03:11:13;;;;;;;3.80;1.70;;;;;;;12.31;58.70;100379.72;5318052;27;20089;-80
2021/05/27 03:13:40;;;;;;;13.07;2.40;;;;;;;12.39;58.55;100384.00;5300367;27;20461;-79
2021/05/27 03:16:07;;;;;;;8.65;2.65;;;;;;;12.36;59.14;100378.78;5305388;26;20044;-80
2021/05/27 03:18:34;;;;;;;8.27;2.87;;;;;;;12.47;58.89;100387.41;5347334;26;20029;-80
2021/05/27 03:21:02;;;;;;;9.07;2.22;;;;;;;12.41;58.44;100387.50;5347461;26;20393;-79
2021/05/27 03:23:29;;;;;;;6.80;2.22;;;;;;;12.10;60.88;100391.41;5347840;26;20076;-79
2021/05/27 03:25:56;;;;;;;6.07;1.75;;;;;;;11.85;62.20;100380.25;5348728;26;20035;-79
2021/05/27 03:28:23;;;;;;;11.85;2.25;;;;;;;12.28;60.90;100385.91;5327835;26;20033;-79
2021/05/27 03:30:51;;;;;;;5.25;1.55;;;;;;;12.57;59.81;100380.25;5329170;26;20029;-79
2021/05/27 03:33:18;;;;;;;6.18;1.87;;;;;;;12.86;59.11;100384.22;5329438;26;20063;-78
2021/05/27 03:35:45;;;;;;;13.10;1.95;;;;;;;13.31;57.86;100381.75;5348941;26;20113;-80
2021/05/27 03:38:12;;;;;;;2.28;1.48;;;;;;;13.81;56.13;100388.75;5347679;26;20033;-79
2021/05/27 03:40:39;;;;;;;10.98;2.83;;;;;;;14.22;54.95;100380.91;5327684;26;20445;-80
2021/05/27 03:43:07;;;;;;;7.85;1.95;;;;;;;14.90;53.07;100380.28;5328345;26;20029;-79
2021/05/27 03:45:35;;;;;;;3.55;1.50;;;;;;;15.45;51.13;100381.56;5327933;26;20028;-79
2021/05/27 03:48:03;;;;;;;10.10;2.45;;;;;;;15.97;49.79;100380.19;5328763;26;20037;-80
2021/05/27 03:50:31;;;;;;;11.15;2.08;;;;;;;16.58;48.44;100388.97;5327652;26;20061;-80
2021/05/27 03:53:00;;;;;;;8.13;1.58;;;;;;;16.93;47.37;100389.69;5348080;26;20076;-80
2021/05/27 03:55:28;;;;;;;4.62;1.42;;;;;;;17.40;46.01;100383.72;5326920;26;20063;-80
2021/05/27 03:57:55;;;;;;;4.82;1.48;;;;;;;17.78;45.09;100386.88;5325712;26;20083;-80
2021/05/27 04:00:45;;;;;;;13.55;2.30;;;;;;;18.13;44.63;100381.12;5324830;26;20520;-80
2021/05/27 04:03:12;;;;;;;8.10;1.70;;;;;;;18.52;43.76;100377.00;5324261;26;20064;-81
2021/05/27 04:08:33;;;;;;;13.50;3.20;;;;;;;19.22;42.95;100376.84;5343336;26;20098;-81
2021/05/27 04:11:06;;;;;;;9.00;2.33;;;;;;;19.74;41.76;100382.66;5342640;26;20025;-81
2021/05/27 04:13:41;;;;;;;12.27;2.55;;;;;;;20.44;40.20;100375.03;5341329;26;20722;-81
2021/05/27 04:16:18;;;;;;;10.80;3.90;;;;;;;20.89;39.36;100372.94;5324351;26;20087;-81
2021/05/27 04:19:18;;;;;;;;;;;;;;;;;;;;;
2021/05/27 04:22:33;;;;;;;5.93;2.60;;;;;;;22.02;36.42;100366.28;5343442;26;20083;-81
2021/05/27 04:25:35;;;;;;;12.10;2.17;;;;;;;22.37;35.88;100372.44;5319753;26;20048;-82
2021/05/27 04:28:08;;;;;;;5.18;1.62;;;;;;;23.10;35.18;100375.47;5324708;26;20115;-81
2021/05/27 04:34:42;;;;;;;;;;;;;;;;;;;;;
2021/05/27 04:37:25;;;;;;;10.75;2.85;;;;;;;23.66;34.24;100375.72;5343675;26;20342;-82
2021/05/27 04:39:52;;;;;;;5.15;1.25;;;;;;;23.79;34.68;100382.94;5323476;26;20311;-82
2021/05/27 04:42:19;;;;;;;8.57;1.65;;;;;;;23.88;34.27;100373.47;5323086;26;20478;-82
2021/05/27 04:44:46;;;;;;;7.20;2.15;;;;;;;24.28;33.95;100378.19;5343048;26;20726;-82
2021/05/27 04:47:12;;;;;;;8.10;1.90;;;;;;;24.58;34.25;100372.72;5343504;26;20061;-82
2021/05/27 04:49:39;;;;;;;14.68;2.08;;;;;;;24.83;33.37;100374.69;5344454;26;20075;-82
2021/05/27 04:52:07;;;;;;;8.77;2.15;;;;;;;25.05;33.87;100376.81;5344569;26;20220;-82
2021/05/27 04:54:34;;;;;;;13.73;1.27;;;;;;;25.43;33.37;100378.78;5343773;26;20039;-82
2021/05/27 04:57:00;;;;;;;7.68;1.02;;;;;;;25.87;31.65;100374.88;5343866;26;20056;-82
2021/05/27 04:59:29;;;;;;;3.97;0.95;;;;;;;26.54;31.92;100371.94;5343767;26;20144;-83
2021/05/27 05:01:55;;;;;;;3.12;0.80;;;;;;;26.77;31.44;100373.81;5343930;26;20065;-82
2021/05/27 05:04:22;;;;;;;6.68;1.17;;;;;;;27.12;31.01;100364.88;5325791;26;20064;-82
2021/05/27 05:06:50;;;;;;;2.30;0.77;;;;;;;27.20;31.22;100364.34;5329782;26;20068;-82
2021/05/27 05:09:21;;;;;;;3.60;0.80;;;;;;;27.42;32.31;100358.19;5330040;26;20087;-82
2021/05/27 05:11:48;;;;;;;5.93;1.33;;;;;;;27.55;31.56;100369.75;5331110;26;20812;-81
2021/05/27 05:14:15;;;;;;;4.12;1.20;;;;;;;27.70;30.66;100368.56;5331105;26;20052;-81
2021/05/27 05:16:42;;;;;;;2.78;1.00;;;;;;;27.62;30.61;100366.47;5330549;26;20059;-82
2021/05/27 05:19:08;;;;;;;3.78;1.17;;;;;;;26.88;31.96;100375.69;5329986;26;20125;-81
2021/05/27 05:21:35;;;;;;;8.90;3.95;;;;;;;27.40;31.90;100359.16;5348234;26;20056;-81
2021/05/27 05:24:02;;;;;;;18.95;6.57;;;;;;;28.10;31.47;100370.84;5346332;26;20057;-81
2021/05/27 05:26:30;;;;;;;7.78;4.15;;;;;;;28.61;30.45;100369.50;5348664;26;20127;-81
2021/05/27 05:28:57;;;;;;;8.60;2.62;;;;;;;29.03;29.46;100372.37;5348188;26;20112;-81
2021/05/27 05:31:24;;;;;;;12.50;2.97;;;;;;;29.53;28.76;100378.03;5346476;26;20082;-80
2021/05/27 05:33:55;;;;;;;6.32;2.40;;;;;;;30.04;28.18;100372.72;5346574;26;20120;-81
2021/05/27 05:36:23;;;;;;;7.47;2.40;;;;;;;30.18;27.82;100370.62;5346178;26;20931;-82
2021/05/27 05:38:51;;;;;;;12.20;1.92;;;;;;;30.67;27.25;100374.41;5344049;26;20171;-82
2021/05/27 05:41:18;;;;;;;9.98;2.35;;;;;;;31.09;26.90;100369.66;5341111;26;20067;-83
2021/05/27 05:43:45;;;;;;;3.72;1.58;;;;;;;31.05;25.96;100375.50;5341181;26;20487;-83
2021/05/27 05:46:11;;;;;;;7.22;1.62;;;;;;;31.13;25.06;100371.06;5341634;26;20425;-83
2021/05/27 05:48:38;;;;;;;2.95;1.08;;;;;;;31.24;24.73;100372.81;5343654;26;20065;-82
2021/05/27 05:51:07;;;;;;;3.35;1.00;;;;;;;31.50;24.01;100369.50;5323155;26;20072;-83
2021/05/27 05:53:36;;;;;;;3.05;1.10;;;;;;;31.36;24.81;100371.69;5341435;26;20066;-84
2021/05/27 05:56:05;;;;;;;4.07;1.00;;;;;;;31.16;24.10;100375.34;5344159;26;20048;-81
2021/05/27 05:58:32;;;;;;;10.57;2.55;;;;;;;31.30;23.68;100382.22;5346896;26;20107;-82
2021/05/27 06:00:59;;;;;;;10.45;1.60;;;;;;;31.16;24.37;100370.78;5345871;26;20128;-82
2021/05/27 06:03:26;;;;;;;3.03;0.80;;;;;;;30.80;25.10;100374.16;5347571;26;20029;-82
2021/05/27 06:05:53;;;;;;;1.50;0.50;;;;;;;29.72;25.15;100371.97;5344979;26;20032;-83
2021/05/27 06:08:20;;;;;;;2.78;0.60;;;;;;;27.43;27.73;100370.69;5342048;26;20067;-82
2021/05/27 06:10:47;;;;;;;1.75;0.40;;;;;;;25.67;30.58;100384.31;5342548;26;20072;-82
2021/05/27 06:13:14;;;;;;;1.23;0.50;;;;;;;24.05;32.51;100376.94;5344415;26;20196;-82
2021/05/27 06:15:42;;;;;;;1.23;0.40;;;;;;;23.63;33.39;100378.59;5346810;26;20059;-81
2021/05/27 06:18:09;;;;;;;5.62;0.68;;;;;;;23.87;33.34;100374.44;5345829;26;20079;-81
2021/05/27 06:20:36;;;;;;;2.40;0.40;;;;;;;24.27;32.69;100380.03;5347408;26;20029;-81
2021/05/27 06:23:03;;;;;;;1.10;0.37;;;;;;;22.76;35.41;100384.53;5346020;26;20109;-81
2021/05/27 06:25:31;;;;;;;1.60;0.43;;;;;;;22.92;33.96;100385.41;5327094;26;20123;-81
2021/05/27 06:27:58;;;;;;;1.50;0.62;;;;;;;23.00;34.58;100379.59;5324193;26;20145;-82
2021/05/27 06:30:28;;;;;;;2.15;0.52;;;;;;;22.97;35.46;100369.97;5342442;26;20138;-82
2021/05/27 06:32:55;;;;;;;1.23;0.60;;;;;;;23.57;34.04;100378.00;5342485;26;20049;-81
2021/05/27 06:35:22;;;;;;;1.83;0.50;;;;;;;22.89;34.38;100375.72;5346208;26;20089;-82
2021/05/27 06:37:50;;;;;;;2.97;0.85;;;;;;;23.30;34.92;100371.63;5345788;26;20120;-81
2021/05/27 06:40:46;;;;;;;1.58;0.52;;;;;;;22.18;36.21;100377.94;5346434;26;20038;-81
2021/05/27 06:43:19;;;;;;;1.12;0.37;;;;;;;23.00;34.80;100382.28;5327297;26;20065;-81
2021/05/27 06:46:04;;;;;;;2.22;0.45;;;;;;;23.31;34.18;100368.84;5329040;26;20102;-81
2021/05/27 06:48:32;;;;;;;0.95;0.40;;;;;;;23.11;34.58;100380.72;5328607;26;20127;-79
2021/05/27 06:51:04;;;;;;;3.42;0.85;;;;;;;23.30;34.52;100379.66;5327116;26;20113;-80
2021/05/27 06:53:34;;;;;;;1.25;0.60;;;;;;;23.16;35.04;100383.13;5326048;26;20049;-80
2021/05/27 06:56:04;;;;;;;1.55;0.47;;;;;;;24.05;34.19;100377.81;5325894;26;20105;-81
2021/05/27 06:58:37;;;;;;;0.65;0.28;;;;;;;24.05;33.50;100388.53;5344674;26;20060;-81
2021/05/27 07:01:04;;;;;;;4.87;0.60;;;;;;;23.77;33.57;100382.19;5325532;26;20037;-80
2021/05/27 07:03:44;;;;;;;1.77;0.50;;;;;;;23.96;33.15;100386.44;5325891;26;20079;-81
2021/05/27 07:06:19;;;;;;;2.72;0.43;;;;;;;24.60;33.45;100382.41;5326188;26;20056;-81
2021/05/27 07:08:46;;;;;;;0.57;0.20;;;;;;;24.57;32.03;100385.28;5326598;26;20072;-81
2021/05/27 07:11:14;;;;;;;1.43;0.20;;;;;;;24.89;31.31;100385.87;5308461;26;446390;-82
2021/05/27 07:13:53;;;;;;;2.00;0.30;;;;;;;24.32;31.78;100383.25;5342550;26;20060;-82
2021/05/27 07:16:28;;;;;;;;;;;;;;;24.84;31.34;100387.16;5324098;26;20037;-82
2021/05/27 07:19:27;;;;;;;1.02;0.40;;;;;;;24.70;32.10;100388.91;5328244;26;19950;-82
2021/05/27 07:22:00;;;;;;;1.85;0.50;;;;;;;24.45;31.95;100396.81;5325694;26;20060;-83
2021/05/27 07:24:29;;;;;;;1.05;0.30;;;;;;;25.30;30.91;100400.28;5322383;26;20162;-82
2021/05/27 07:26:59;;;;;;;1.02;0.22;;;;;;;24.73;32.23;100395.91;5343292;26;20068;-83
2021/05/27 07:29:29;;;;;;;1.75;0.50;;;;;;;24.43;32.15;100396.06;5343033;26;20025;-82
2021/05/27 07:32:01;;;;;;;1.75;0.50;;;;;;;23.65;33.24;100406.16;5343481;26;20122;-82
2021/05/27 07:34:29;;;;;;;0.80;0.30;;;;;;;23.92;33.38;100398.31;5323486;26;20067;-83
2021/05/27 07:36:56;;;;;;;0.47;0.30;;;;;;;24.01;32.99;100393.25;5343148;26;20075;-82
2021/05/27 07:39:23;;;;;;;0.45;0.22;;;;;;;23.64;33.89;100397.25;5322261;26;20064;-83
2021/05/27 07:41:54;;;;;;;0.55;0.22;;;;;;;23.37;35.67;100396.25;5322498;26;20079;-82
2021/05/27 07:44:21;;;;;;;1.02;0.30;;;;;;;24.49;33.30;100398.34;5339673;26;20056;-82
2021/05/27 07:46:48;;;;;;;8.40;0.40;;;;;;;24.32;32.98;100407.41;5323223;26;20114;-82
2021/05/27 07:49:16;;;;;;;1.20;0.30;;;;;;;24.33;32.53;100409.16;5344717;26;20071;-81
2021/05/27 07:51:44;;;;;;;1.20;0.30;;;;;;;24.66;32.76;100403.50;5342311;26;20068;-82
2021/05/27 07:54:12;;;;;;;0.43;0.35;;;;;;;25.28;31.60;100403.06;5325185;26;20070;-81
2021/05/27 07:56:39;;;;;;;4.25;0.40;;;;;;;25.39;31.72;100399.66;5345072;26;21028;-82
2021/05/27 07:59:06;;;;;;;1.02;0.35;;;;;;;26.37;30.48;100402.75;5346164;26;20146;-81
2021/05/27 08:01:33;;;;;;;0.75;0.37;;;;;;;26.71;29.49;100393.97;5325917;26;20064;-82
2021/05/27 08:04:00;;;;;;;1.05;0.45;;;;;;;26.48;29.61;100400.16;5324818;26;20064;-81
2021/05/27 08:06:27;;;;;;;1.55;0.40;;;;;;;25.80;29.92;100407.56;5342964;26;20685;-83
2021/05/27 08:08:55;;;;;;;1.77;0.60;;;;;;;26.29;29.86;100395.19;5345121;26;20029;-79
2021/05/27 08:11:21;;;;;;;2.40;0.43;;;;;;;26.64;29.95;100397.22;5345238;26;20064;-80
2021/05/27 08:13:49;;;;;;;2.60;0.40;;;;;;;27.20;28.22;100399.41;5346383;26;20048;-81
2021/05/27 08:16:16;;;;;;;1.15;0.50;;;;;;;26.65;29.98;100394.44;5326918;26;20132;-82
2021/05/27 08:18:43;;;;;;;1.37;0.50;;;;;;;27.26;28.76;100393.56;5343565;26;20132;-83
2021/05/27 08:21:11;;;;;;;0.65;0.40;;;;;;;27.35;27.93;100390.16;5321882;26;20065;-82
2021/05/27 08:23:38;;;;;;;2.65;1.15;;;;;;;27.80;27.52;100393.91;5342017;26;20087;-82
2021/05/27 08:26:05;;;;;;;2.83;0.40;;;;;;;27.85;27.15;100385.41;5321705;26;20979;-82
2021/05/27 08:28:32;;;;;;;1.37;0.43;;;;;;;28.08;27.82;100387.16;5340775;26;20202;-82
2021/05/27 08:31:01;;;;;;;0.98;0.47;;;;;;;27.98;26.54;100388.03;5323042;26;20060;-82
2021/05/27 08:33:28;;;;;;;1.27;0.40;;;;;;;27.18;27.95;100386.91;5343834;26;20056;-82
2021/05/27 08:35:55;;;;;;;0.45;0.20;;;;;;;26.97;28.00;100383.09;5324669;26;20395;-81
2021/05/27 08:38:22;;;;;;;2.00;0.50;;;;;;;27.15;28.09;100380.91;5347100;26;20399;-83
2021/05/27 08:40:52;;;;;;;2.05;0.40;;;;;;;26.89;29.25;100380.13;5345338;26;20061;-82
2021/05/27 08:43:23;;;;;;;1.00;0.47;;;;;;;27.38;28.23;100371.94;5346029;26;20100;-82
2021/05/27 08:45:50;;;;;;;1.58;0.20;;;;;;;26.34;29.33;100379.59;5325733;26;20032;-82
2021/05/27 08:48:18;;;;;;;1.15;0.40;;;;;;;26.14;29.05;100380.16;5325584;26;20075;-82
2021/05/27 08:50:47;;;;;;;1.92;0.30;;;;;;;27.02;29.02;100380.06;5325194;26;20125;-83
2021/05/27 08:53:16;;;;;;;1.40;0.65;;;;;;;27.45;28.06;100376.84;5325635;26;20438;-83
2021/05/27 08:55:45;;;;;;;1.30;0.28;;;;;;;26.93;28.87;100387.84;5346513;26;20150;-83
2021/05/27 08:58:13;;;;;;;;;;;;;;;26.77;28.70;100381.88;5325660;26;20065;-82
2021/05/27 09:00:41;;;;;;;0.40;0.20;;;;;;;27.64;27.06;100371.72;5323048;26;19973;-82
2021/05/27 09:03:10;;;;;;;1.73;0.30;;;;;;;27.99;27.58;100371.69;5323383;26;20057;-84
2021/05/27 09:05:39;;;;;;;1.43;0.40;;;;;;;28.61;25.83;100370.34;5325011;26;20056;-83
2021/05/27 09:08:07;;;;;;;;;;;;;;;27.69;27.57;100374.09;5345410;26;20132;-83
2021/05/27 09:10:42;;;;;;;1.92;0.40;;;;;;;28.56;27.77;100378.00;5344599;26;20387;-83
2021/05/27 09:13:14;;;;;;;1.30;0.43;;;;;;;29.44;26.10;100363.44;5346798;26;20056;-83
2021/05/27 09:15:43;;;;;;;1.50;0.30;;;;;;;28.97;25.30;100371.00;5345909;26;20048;-82
2021/05/27 09:18:11;;;;;;;3.00;1.63;;;;;;;27.49;27.34;100359.44;5344877;26;20061;-83
2021/05/27 09:20:39;;;;;;;4.22;0.50;;;;;;;28.40;29.31;100363.97;5342823;26;20209;-82
2021/05/27 09:23:17;;;;;;;0.70;0.25;;;;;;;27.61;27.14;100372.81;5344717;26;20035;-83
2021/05/27 09:25:51;;;;;;;5.07;1.95;;;;;;;28.67;26.85;100371.69;5326346;26;20065;-83
2021/05/27 09:28:22;;;;;;;6.28;0.60;;;;;;;28.68;25.27;100362.63;5346238;26;20133;-83
2021/05/27 09:30:54;;;;;;;1.27;0.30;;;;;;;29.06;25.58;100370.28;5345758;26;20057;-81
2021/05/27 09:33:33;;;;;;;2.95;0.57;;;;;;;29.82;23.94;100372.84;5327548;26;20120;-81
2021/05/27 09:36:11;;;;;;;6.30;0.80;;;;;;;28.72;26.13;100377.59;5345369;26;20454;-81
2021/05/27 09:38:41;;;;;;;1.42;0.50;;;;;;;28.15;26.65;100374.06;5325785;26;20087;-82
2021/05/27 09:41:21;;;;;;;1.60;0.50;;;;;;;27.61;27.49;100372.81;5344670;26;20056;-82
2021/05/27 09:43:50;;;;;;;0.53;0.30;;;;;;;26.24;29.61;100378.53;5346062;26;20025;-81
2021/05/27 09:46:24;;;;;;;1.95;0.47;;;;;;;28.05;28.90;100378.47;5345488;26;20133;-81
2021/05/27 09:49:25;;;;;;;1.80;0.35;;;;;;;28.26;26.33;100370.47;5325444;26;20114;-81
2021/05/27 09:51:54;;;;;;;0.68;0.43;;;;;;;27.17;28.11;100376.22;5330202;26;20787;-82
2021/05/27 09:54:21;;;;;;;1.10;0.30;;;;;;;27.97;28.91;100372.78;5325139;26;20053;-82
2021/05/27 09:56:49;;;;;;;0.50;0.30;;;;;;;28.07;27.70;100365.69;5325857;26;20080;-82
2021/05/27 09:59:17;;;;;;;1.52;0.30;;;;;;;26.23;29.89;100368.72;5324264;26;20068;-82
2021/05/27 10:02:15;;;;;;;0.40;0.30;;;;;;;26.50;28.78;100365.87;5323818;26;20427;-82
2021/05/27 10:04:57;;;;;;;2.45;0.40;;;;;;;26.69;28.80;100365.41;5330420;26;20075;-81
2021/05/27 10:07:38;;;;;;;1.45;0.60;;;;;;;27.50;28.03;100361.12;5342773;26;20071;-82
2021/05/27 10:10:25;;;;;;;1.10;0.37;;;;;;;26.96;28.89;100365.19;5344204;26;20383;-82
2021/05/27 10:12:54;;;;;;;0.80;0.35;;;;;;;26.99;29.16;100366.81;5342403;26;20484;-81
2021/05/27 10:15:24;;;;;;;1.40;0.40;;;;;;;26.26;29.75;100365.78;5322802;26;20051;-82
2021/05/27 10:17:54;;;;;;;1.52;0.37;;;;;;;27.10;29.25;100366.88;5341227;26;20047;-81
2021/05/27 10:20:26;;;;;;;0.57;0.30;;;;;;;27.43;28.58;100358.06;5344299;26;20039;-81
2021/05/27 10:22:56;;;;;;;0.55;0.45;;;;;;;25.52;32.25;100373.63;5343557;26;20476;-81
2021/05/27 10:25:28;;;;;;;1.90;0.43;;;;;;;26.19;31.08;100368.06;5325034;26;20119;-81
2021/05/27 10:27:57;;;;;;;1.25;0.60;;;;;;;25.41;33.02;100365.41;5326164;26;20875;-81
2021/05/27 10:30:27;;;;;;;3.00;0.30;;;;;;;25.27;33.00;100369.06;5344946;26;20051;-81
2021/05/27 10:33:08;;;;;;;1.95;0.35;;;;;;;25.73;32.04;100367.72;5344466;26;20068;-81
2021/05/27 10:35:57;;;;;;;2.90;0.40;;;;;;;25.83;31.51;100372.41;5344631;26;20120;-81
2021/05/27 10:38:38;;;;;;;0.90;0.30;;;;;;;25.45;32.20;100371.47;5323125;26;20104;-82
2021/05/27 10:41:18;;;;;;;0.93;0.40;;;;;;;25.96;31.71;100356.25;5341181;26;20117;-82
2021/05/27 10:43:59;;;;;;;0.37;0.30;;;;;;;26.12;31.62;100364.12;5322483;26;20117;-82
2021/05/27 10:46:32;;;;;;;1.45;0.50;;;;;;;26.79;29.92;100360.19;5341671;26;20071;-82
2021/05/27 10:49:11;;;;;;;0.65;0.40;;;;;;;27.27;30.99;100363.78;5322264;26;20079;-82
2021/05/27 10:51:46;;;;;;;2.67;0.55;;;;;;;26.50;30.91;100363.19;5321974;26;20083;-82
2021/05/27 10:54:16;;;;;;;1.23;0.40;;;;;;;26.75;30.64;100364.97;5341246;26;20064;-82
2021/05/27 10:56:46;;;;;;;1.40;0.52;;;;;;;26.95;29.97;100361.63;5321636;26;20101;-82
2021/05/27 10:59:31;;;;;;;1.95;0.60;;;;;;;26.95;30.18;100371.56;5342315;26;20056;-82
2021/05/27 11:02:00;;;;;;;2.30;0.40;;;;;;;27.23;29.51;100354.19;5342345;26;20142;-82
2021/05/27 11:04:39;;;;;;;0.82;0.45;;;;;;;27.84;29.32;100349.47;5322802;26;20060;-82
2021/05/27 11:08:01;;;;;;;2.35;0.50;;;;;;;27.48;29.92;100358.56;5322796;26;20052;-83
2021/05/27 11:10:48;;;;;;;1.62;0.45;;;;;;;27.67;30.38;100357.12;5329429;26;20039;-82
2021/05/27 11:13:19;;;;;;;1.30;0.50;;;;;;;27.62;29.18;100357.50;5323175;26;20068;-81
2021/05/27 11:16:03;;;;;;;1.30;0.32;;;;;;;25.56;31.94;100361.72;5324039;26;20065;-81
2021/05/27 11:18:34;;;;;;;3.22;0.43;;;;;;;25.94;32.65;100351.94;5341435;26;20087;-82
2021/05/27 11:21:36;;;;;;;0.43;0.30;;;;;;;26.34;33.16;100360.72;5344092;26;20047;-81
2021/05/27 11:27:24;;;;;;;2.70;0.57;;;;;;;25.77;35.20;100350.41;5345730;26;20061;-81
2021/05/27 11:30:18;;;;;;;2.20;0.55;;;;;;;26.13;34.07;100343.44;5344407;26;20107;-81
2021/05/27 11:32:46;;;;;;;5.90;0.60;;;;;;;25.99;32.74;100339.03;5343560;26;20087;-81
2021/05/27 11:35:14;;;;;;;45.25;3.80;;;;;;;25.80;34.48;100334.91;5344170;26;20094;-81
2021/05/27 11:37:43;;;;;;;7.07;0.80;;;;;;;25.83;35.37;100326.66;5323435;26;20113;-83
2021/05/27 11:40:12;;;;;;;;;;;;;;;26.11;34.45;100331.91;5342659;26;20052;-82
2021/05/27 11:42:39;;;;;;;1.42;0.47;;;;;;;25.33;35.44;100336.38;5342420;26;20345;-82
2021/05/27 11:45:09;;;;;;;3.75;0.70;;;;;;;24.61;38.98;100335.75;5342738;26;20074;-82
2021/05/27 11:47:36;;;;;;;1.92;0.57;;;;;;;24.62;35.55;100328.56;5341271;26;20060;-82
2021/05/27 11:50:11;;;;;;;1.87;0.40;;;;;;;24.75;35.67;100332.19;5342129;26;20120;-83
2021/05/27 11:52:39;;;;;;;2.65;0.40;;;;;;;24.42;36.14;100333.44;5343212;26;20048;-83
2021/05/27 11:55:11;;;;;;;6.87;1.00;;;;;;;24.19;35.83;100324.13;5342101;26;20064;-82
2021/05/27 11:57:47;;;;;;;6.12;0.88;;;;;;;23.34;38.67;100338.31;5342437;26;20067;-83